Time;durP1;ratioP1;P1;durP2;ratioP2;P2;SDS_P1;SDS_P2;PMS_P1;PMS_P2;Temp;Humidity;BMP_temperature;BMP_pressure;BME280_temperature;BME280_humidity;BME280_pressure;Samples;Min_cycle;Max_cycle;Signal;HPM_P1;HPM_P2
2022/12/07 00:01:10;;;;;;;10.80;3.40;;;3.60;99.90;;;;;;5093867;28;20047;-72
2022/12/07 00:03:37;;;;;;;10.43;3.33;;;3.60;99.90;;;;;;5108422;27;20404;-72
2022/12/07 00:06:05;;;;;;;10.98;3.50;;;4.20;99.90;;;;;;5102947;27;20061;-71
2022/12/07 00:08:32;;;;;;;11.43;3.20;;;3.60;99.90;;;;;;5102788;28;20051;-71
2022/12/07 00:11:13;;;;;;;8.57;3.08;;;3.50;99.90;;;;;;5081785;28;20044;-71
2022/12/07 00:13:39;;;;;;;12.48;3.05;;;3.50;99.90;;;;;;5099239;27;20082;-71
2022/12/07 00:16:14;;;;;;;9.23;2.80;;;3.50;99.90;;;;;;5096017;28;20039;-72
2022/12/07 00:18:41;;;;;;;9.38;2.88;;;3.50;99.90;;;;;;5086415;27;20436;-72
2022/12/07 00:21:10;;;;;;;8.95;2.97;;;3.40;99.90;;;;;;5115633;27;20104;-72
2022/12/07 00:23:36;;;;;;;9.27;2.67;;;3.40;99.90;;;;;;5116214;27;20058;-72
2022/12/07 00:26:08;;;;;;;8.77;2.60;;;3.30;99.90;;;;;;5116062;27;20043;-71
2022/12/07 00:28:34;;;;;;;11.60;2.53;;;3.30;99.90;;;;;;5101605;27;20479;-71
2022/12/07 00:31:06;;;;;;;11.07;2.58;;;3.30;99.90;;;;;;5105671;28;20047;-71
2022/12/07 00:33:33;;;;;;;9.60;2.65;;;3.20;99.90;;;;;;5095805;28;20134;-71
2022/12/07 00:36:00;;;;;;;9.40;2.60;;;3.30;99.90;;;;;;5094614;28;20043;-71
2022/12/07 00:38:29;;;;;;;11.20;2.45;;;3.20;99.90;;;;;;5111843;27;20054;-71
2022/12/07 00:40:59;;;;;;;9.07;2.28;;;3.30;99.90;;;;;;5099170;27;20043;-71
2022/12/07 00:43:26;;;;;;;11.23;2.50;;;3.40;99.90;;;;;;5097535;27;20043;-72
2022/12/07 00:45:52;;;;;;;9.35;2.22;;;3.60;99.90;;;;;;5085967;27;20040;-71
2022/12/07 00:48:17;;;;;;;9.60;1.98;;;3.40;99.90;;;;;;5099234;27;20111;-72
2022/12/07 00:50:43;;;;;;;9.43;2.08;;;3.40;99.90;;;;;;5115116;27;20043;-72
2022/12/07 00:53:09;;;;;;;12.38;2.13;;;3.50;99.90;;;;;;5082222;27;20046;-72
2022/12/07 00:55:35;;;;;;;8.27;2.17;;;3.50;99.90;;;;;;5111923;27;20031;-72
2022/12/07 00:58:01;;;;;;;8.63;2.20;;;3.50;99.90;;;;;;5088185;27;20055;-71
2022/12/07 01:00:27;;;;;;;8.32;2.03;;;3.40;99.90;;;;;;5101303;28;20492;-72
2022/12/07 01:02:53;;;;;;;10.63;2.15;;;3.40;99.90;;;;;;5078840;28;20526;-71
2022/12/07 01:05:18;;;;;;;8.48;2.28;;;3.40;99.90;;;;;;5094781;28;20043;-71
2022/12/07 01:07:46;;;;;;;12.02;2.17;;;3.30;99.90;;;;;;5114183;28;20493;-71
2022/12/07 01:10:12;;;;;;;10.80;2.10;;;3.30;99.90;;;;;;5115928;28;20398;-71
2022/12/07 01:12:38;;;;;;;11.18;2.08;;;3.30;99.90;;;;;;5100899;28;20074;-72
2022/12/07 01:15:04;;;;;;;9.35;1.90;;;3.20;99.90;;;;;;5115544;28;20073;-72
2022/12/07 01:17:29;;;;;;;13.38;2.20;;;3.20;99.90;;;;;;5099046;28;20036;-72
2022/12/07 01:19:55;;;;;;;10.02;2.05;;;3.30;99.90;;;;;;5098402;28;20057;-72
2022/12/07 01:22:21;;;;;;;11.25;2.15;;;3.20;99.90;;;;;;5094675;28;20052;-72
2022/12/07 01:24:47;;;;;;;14.13;2.03;;;3.50;99.90;;;;;;5111000;27;20054;-71
2022/12/07 01:27:13;;;;;;;12.25;2.20;;;3.10;99.90;;;;;;5086628;28;20044;-71
2022/12/07 01:29:39;;;;;;;11.52;1.95;;;3.10;99.90;;;;;;5076376;28;20126;-71
2022/12/07 01:32:05;;;;;;;11.70;1.90;;;3.10;99.90;;;;;;5118168;27;20126;-71
2022/12/07 01:34:30;;;;;;;10.05;2.10;;;3.10;99.90;;;;;;5107769;28;20044;-71
2022/12/07 01:36:57;;;;;;;10.63;1.90;;;3.10;99.90;;;;;;5097947;28;20040;-72
2022/12/07 01:39:23;;;;;;;10.85;2.22;;;3.10;99.90;;;;;;5099505;28;20059;-73
2022/12/07 01:41:49;;;;;;;13.70;1.95;;;3.10;99.90;;;;;;5100164;27;20135;-72
2022/12/07 01:44:29;;;;;;;8.95;2.10;;;3.00;99.90;;;;;;5111748;28;20134;-72
2022/12/07 01:47:03;;;;;;;12.20;2.10;;;3.10;99.90;;;;;;5098641;28;20077;-72
2022/12/07 01:49:32;;;;;;;11.52;2.03;;;3.00;99.90;;;;;;5081714;28;20127;-71
2022/12/07 01:52:21;;;;;;;12.70;1.95;;;3.10;99.90;;;;;;5111118;27;20399;-72
2022/12/07 01:54:50;;;;;;;9.70;1.98;;;3.10;99.90;;;;;;5109829;27;20504;-71
2022/12/07 01:57:17;;;;;;;9.45;2.00;;;3.10;99.90;;;;;;5084595;28;20054;-72
2022/12/07 01:59:45;;;;;;;10.65;1.92;;;3.00;99.90;;;;;;5096525;27;20096;-71
2022/12/07 02:02:22;;;;;;;8.43;1.80;;;2.90;99.90;;;;;;5101724;27;20505;-72
2022/12/07 02:04:50;;;;;;;8.43;1.98;;;2.90;99.90;;;;;;5107932;28;20044;-72
2022/12/07 02:07:16;;;;;;;12.73;2.20;;;2.90;99.90;;;;;;5115493;27;20117;-72
2022/12/07 02:09:42;;;;;;;10.52;1.90;;;3.10;99.90;;;;;;5119637;27;20047;-73
2022/12/07 02:12:08;;;;;;;8.63;1.88;;;2.90;99.90;;;;;;5087573;27;20070;-72
2022/12/07 02:14:34;;;;;;;10.80;1.98;;;2.90;99.90;;;;;;5081445;28;20123;-72
2022/12/07 02:17:33;;;;;;;10.13;1.90;;;2.90;99.90;;;;;;5088398;27;20061;-71
2022/12/07 02:20:22;;;;;;;12.43;1.90;;;2.90;99.90;;;;;;5118226;27;20039;-73
2022/12/07 02:23:33;;;;;;;13.73;2.00;;;2.90;99.90;;;;;;5118734;27;20051;-71
2022/12/07 02:26:12;;;;;;;6.88;1.55;;;2.90;99.90;;;;;;5109886;27;20494;-71
2022/12/07 02:29:00;;;;;;;10.60;1.52;;;2.80;99.90;;;;;;5118781;27;20150;-71
2022/12/07 02:31:30;;;;;;;11.43;1.70;;;2.90;99.90;;;;;;5114292;28;20461;-73
2022/12/07 02:34:12;;;;;;;12.07;1.70;;;3.20;99.90;;;;;;5115845;27;20447;-71
2022/12/07 02:36:46;;;;;;;8.00;1.63;;;3.00;99.90;;;;;;5096733;28;20048;-72
2022/12/07 02:39:26;;;;;;;8.90;1.40;;;2.90;99.90;;;;;;5092223;28;20044;-74
2022/12/07 02:41:58;;;;;;;8.57;1.60;;;2.90;99.90;;;;;;5098809;27;20049;-72
2022/12/07 02:44:27;;;;;;;7.93;1.42;;;2.90;99.90;;;;;;5118825;27;20055;-72
2022/12/07 02:47:04;;;;;;;8.07;1.38;;;2.90;99.90;;;;;;5117747;27;20047;-73
2022/12/07 02:49:31;;;;;;;10.50;1.27;;;2.90;99.90;;;;;;5097838;28;20185;-72
2022/12/07 02:51:57;;;;;;;9.00;1.55;;;3.70;99.90;;;;;;5090664;28;20044;-72
2022/12/07 02:54:23;;;;;;;9.70;1.50;;;2.90;99.90;;;;;;5117802;27;20058;-71
2022/12/07 02:56:50;;;;;;;6.88;1.25;;;2.90;99.90;;;;;;5114771;28;20498;-72
2022/12/07 02:59:43;;;;;;;7.40;1.30;;;2.80;99.90;;;;;;5115712;27;20047;-72
2022/12/07 03:02:43;;;;;;;6.28;1.27;;;2.80;99.90;;;;;;5103967;28;20048;-72
2022/12/07 03:05:11;;;;;;;7.70;1.33;;;2.80;99.90;;;;;;5117520;27;20047;-72
2022/12/07 03:08:04;;;;;;;8.88;1.40;;;2.80;99.90;;;;;;5102432;27;20058;-72
2022/12/07 03:10:55;;;;;;;7.03;1.30;;;2.70;99.90;;;;;;5117914;27;20502;-72
2022/12/07 03:13:43;;;;;;;8.75;1.35;;;2.80;99.90;;;;;;5097193;28;20113;-72
2022/12/07 03:16:17;;;;;;;8.45;1.20;;;2.80;99.90;;;;;;5091109;27;20067;-73
2022/12/07 03:18:52;;;;;;;7.45;1.27;;;2.80;99.90;;;;;;5135123;27;20094;-72
2022/12/07 03:21:33;;;;;;;12.30;1.58;;;3.00;99.90;;;;;;5135059;27;20508;-72
2022/12/07 03:24:05;;;;;;;8.63;1.50;;;2.90;99.90;;;;;;5118025;27;20055;-72
2022/12/07 03:26:36;;;;;;;14.48;2.13;;;2.90;99.90;;;;;;5101824;27;20047;-71
2022/12/07 03:29:12;;;;;;;10.23;1.60;;;2.90;99.90;;;;;;5102025;28;20442;-71
2022/12/07 03:31:48;;;;;;;9.45;1.60;;;2.90;99.90;;;;;;5114363;27;20051;-71
2022/12/07 03:34:21;;;;;;;8.73;1.40;;;3.20;99.90;;;;;;5082075;28;20102;-72
2022/12/07 03:37:08;;;;;;;11.13;1.83;;;3.00;99.90;;;;;;5108966;27;20035;-71
2022/12/07 03:39:39;;;;;;;12.13;1.50;;;3.00;99.90;;;;;;5100246;27;20107;-71
2022/12/07 03:42:07;;;;;;;8.73;1.30;;;3.10;99.90;;;;;;5102781;27;20035;-71
2022/12/07 03:44:35;;;;;;;10.60;1.45;;;3.20;99.90;;;;;;5113437;28;20047;-71
2022/12/07 03:47:15;;;;;;;8.57;1.50;;;3.10;99.90;;;;;;5105993;28;20044;-71
2022/12/07 03:50:19;;;;;;;10.13;1.30;;;3.10;99.90;;;;;;5098336;28;20079;-71
2022/12/07 03:53:02;;;;;;;9.80;1.58;;;3.10;99.90;;;;;;5074422;28;20429;-71
2022/12/07 03:55:35;;;;;;;8.05;1.30;;;3.20;99.90;;;;;;5086793;27;20051;-71
2022/12/07 03:58:10;;;;;;;7.35;1.25;;;3.20;99.90;;;;;;5097158;27;20372;-71
2022/12/07 04:00:36;;;;;;;10.95;1.38;;;3.20;99.90;;;;;;5106525;27;20050;-71
2022/12/07 04:03:02;;;;;;;8.38;1.50;;;3.20;99.90;;;;;;5100920;28;20483;-71
2022/12/07 04:05:28;;;;;;;9.32;1.50;;;3.20;99.90;;;;;;5101052;28;20043;-72
2022/12/07 04:07:53;;;;;;;8.10;1.77;;;3.20;99.90;;;;;;5106584;28;20047;-71
2022/12/07 04:10:19;;;;;;;9.75;1.80;;;3.10;99.90;;;;;;5095801;28;20103;-72
2022/12/07 04:12:45;;;;;;;10.90;1.98;;;3.20;99.90;;;;;;5087847;28;20039;-71
2022/12/07 04:15:11;;;;;;;9.40;2.13;;;4.10;99.90;;;;;;5110328;28;20475;-71
2022/12/07 04:17:37;;;;;;;10.98;2.53;;;3.10;99.90;;;;;;5112983;28;20048;-71
2022/12/07 04:20:05;;;;;;;11.52;2.50;;;3.10;99.90;;;;;;5095751;28;20479;-71
2022/12/07 04:22:31;;;;;;;8.82;2.45;;;3.10;99.90;;;;;;5112626;28;20139;-71
2022/12/07 04:24:56;;;;;;;8.80;2.30;;;3.10;99.90;;;;;;5079477;28;20481;-71
2022/12/07 04:27:22;;;;;;;12.35;2.92;;;3.40;99.90;;;;;;5081234;28;20040;-71
2022/12/07 04:29:48;;;;;;;13.00;2.63;;;3.10;99.90;;;;;;5108135;27;20043;-71
2022/12/07 04:32:13;;;;;;;11.85;2.60;;;3.10;99.90;;;;;;5097925;28;20051;-73
2022/12/07 04:34:39;;;;;;;12.60;2.75;;;3.10;99.90;;;;;;5105711;27;20138;-72
2022/12/07 04:37:05;;;;;;;9.95;2.50;;;3.00;99.90;;;;;;5099443;28;20043;-72
2022/12/07 04:39:32;;;;;;;15.00;2.95;;;3.00;99.90;;;;;;5099382;27;20452;-71
2022/12/07 04:41:59;;;;;;;12.75;2.90;;;3.10;99.90;;;;;;5101170;27;20043;-72
2022/12/07 04:44:26;;;;;;;11.25;2.50;;;2.90;99.90;;;;;;5116337;28;20100;-71
2022/12/07 04:46:52;;;;;;;11.10;2.47;;;2.90;99.90;;;;;;5099019;27;20039;-72
2022/12/07 04:49:19;;;;;;;8.95;2.30;;;2.90;99.90;;;;;;5116183;27;20115;-72
2022/12/07 04:51:45;;;;;;;9.20;2.25;;;2.80;99.90;;;;;;5094733;28;20052;-71
2022/12/07 04:54:12;;;;;;;7.82;2.13;;;2.80;99.90;;;;;;5095895;28;20116;-72
2022/12/07 04:56:38;;;;;;;10.48;2.20;;;2.70;99.90;;;;;;5108497;27;20043;-71
2022/12/07 04:59:04;;;;;;;8.35;2.10;;;3.40;99.90;;;;;;5096171;28;20055;-72
2022/12/07 05:01:31;;;;;;;11.10;2.35;;;2.70;99.90;;;;;;5105325;28;20043;-72
2022/12/07 05:03:56;;;;;;;10.52;2.20;;;2.60;99.90;;;;;;5092874;28;21545;-72
2022/12/07 05:06:22;;;;;;;10.07;2.30;;;2.60;99.90;;;;;;5103227;28;20188;-72
2022/12/07 05:08:48;;;;;;;12.65;2.00;;;2.50;99.90;;;;;;5095295;28;20534;-72
2022/12/07 05:11:37;;;;;;;11.82;2.20;;;2.60;99.90;;;;;;5096889;28;20050;-72
2022/12/07 05:14:03;;;;;;;9.50;2.35;;;2.50;99.90;;;;;;5109189;28;20154;-72
2022/12/07 05:16:28;;;;;;;10.75;2.30;;;2.50;99.90;;;;;;5094632;28;20373;-72
2022/12/07 05:18:54;;;;;;;11.80;2.10;;;2.40;99.90;;;;;;5085036;28;20039;-72
2022/12/07 05:21:20;;;;;;;9.93;2.00;;;3.40;99.90;;;;;;5106926;28;20039;-72
2022/12/07 05:23:46;;;;;;;12.70;2.10;;;3.30;99.90;;;;;;5113798;28;20076;-72
2022/12/07 05:26:11;;;;;;;8.07;1.90;;;3.00;99.90;;;;;;5095484;28;20513;-73
2022/12/07 05:28:37;;;;;;;12.77;1.95;;;2.60;99.90;;;;;;5095712;28;20049;-71
2022/12/07 05:31:03;;;;;;;10.30;1.98;;;2.40;99.90;;;;;;5079365;28;20069;-72
2022/12/07 05:33:29;;;;;;;10.77;1.95;;;2.40;99.90;;;;;;5108741;28;20050;-72
2022/12/07 05:35:55;;;;;;;9.05;1.92;;;2.40;99.90;;;;;;5110031;28;20036;-72
2022/12/07 05:38:20;;;;;;;11.48;1.88;;;2.40;99.90;;;;;;5078469;28;20048;-73
2022/12/07 05:40:46;;;;;;;8.60;1.92;;;2.60;99.90;;;;;;5091906;28;20118;-72
2022/12/07 05:43:12;;;;;;;9.75;1.80;;;2.50;99.90;;;;;;5112672;28;20040;-71
2022/12/07 05:45:37;;;;;;;7.88;1.60;;;2.50;99.90;;;;;;5102086;28;20055;-71
2022/12/07 05:48:03;;;;;;;16.90;1.98;;;2.50;99.90;;;;;;5099689;28;20078;-71
2022/12/07 05:50:29;;;;;;;12.05;1.88;;;2.50;99.90;;;;;;5112260;28;20051;-72
2022/12/07 05:52:54;;;;;;;8.32;1.70;;;2.50;99.90;;;;;;5113796;28;20047;-72
2022/12/07 05:55:20;;;;;;;10.05;1.80;;;2.50;99.90;;;;;;5113948;28;20051;-73
2022/12/07 06:00:32;;;;;;;7.25;1.52;;;2.40;99.90;;;;;;5057098;28;20560;-73
2022/12/07 06:02:58;;;;;;;7.85;1.60;;;2.40;99.90;;;;;;5108732;28;20733;-73
2022/12/07 06:05:23;;;;;;;8.30;1.60;;;2.40;99.90;;;;;;5112196;28;20054;-73
2022/12/07 06:07:49;;;;;;;9.98;1.60;;;2.40;99.90;;;;;;5095752;28;20061;-72
2022/12/07 06:10:15;;;;;;;11.07;1.70;;;2.60;99.90;;;;;;5113478;27;20050;-72
2022/12/07 06:12:42;;;;;;;8.88;1.55;;;2.30;99.90;;;;;;5097840;27;20047;-72
2022/12/07 06:15:10;;;;;;;6.65;1.50;;;2.30;99.90;;;;;;5092366;28;20126;-72
2022/12/07 06:17:36;;;;;;;13.07;1.80;;;2.30;99.90;;;;;;5113644;27;20486;-72
2022/12/07 06:20:02;;;;;;;6.50;1.40;;;2.20;99.90;;;;;;5099530;27;20126;-72
2022/12/07 06:22:28;;;;;;;8.98;1.67;;;2.20;99.90;;;;;;5098097;27;20458;-72
2022/12/07 06:24:54;;;;;;;9.55;1.60;;;2.20;99.90;;;;;;5081468;28;20070;-73
2022/12/07 06:27:20;;;;;;;8.77;1.40;;;2.20;99.90;;;;;;5104714;28;20046;-72
2022/12/07 06:29:45;;;;;;;9.32;1.60;;;2.50;99.90;;;;;;5101413;27;20073;-72
2022/12/07 06:32:11;;;;;;;8.25;1.60;;;2.20;99.90;;;;;;5098173;28;20088;-72
2022/12/07 06:34:37;;;;;;;11.55;1.70;;;2.20;99.90;;;;;;5099059;27;20503;-72
2022/12/07 06:37:03;;;;;;;11.05;1.50;;;2.20;99.90;;;;;;5099979;27;20082;-72
2022/12/07 06:39:29;;;;;;;7.78;1.63;;;2.30;99.90;;;;;;5118755;27;20042;-72
2022/12/07 06:41:56;;;;;;;9.68;1.60;;;2.20;99.90;;;;;;5104165;27;20448;-72
2022/12/07 06:44:22;;;;;;;10.93;1.60;;;2.20;99.90;;;;;;5118303;27;20130;-71
2022/12/07 06:46:49;;;;;;;10.13;1.70;;;2.20;99.90;;;;;;5116091;27;20054;-72
2022/12/07 06:49:15;;;;;;;11.05;1.70;;;2.30;99.90;;;;;;5105760;27;20043;-72
2022/12/07 06:51:41;;;;;;;7.55;1.58;;;3.10;99.90;;;;;;5117269;27;20172;-72
2022/12/07 06:54:08;;;;;;;12.55;1.77;;;2.20;99.90;;;;;;5118336;27;20058;-72
2022/12/07 06:56:34;;;;;;;8.15;1.50;;;2.20;99.90;;;;;;5101280;27;20056;-72
2022/12/07 06:59:00;;;;;;;9.38;1.60;;;2.40;99.90;;;;;;5097069;28;20047;-72
2022/12/07 07:01:25;;;;;;;9.63;1.50;;;2.20;99.90;;;;;;5107844;27;20039;-73
2022/12/07 07:03:52;;;;;;;9.52;1.52;;;2.20;99.90;;;;;;5084210;28;20058;-72
2022/12/07 07:06:18;;;;;;;13.80;1.58;;;2.10;99.90;;;;;;5104861;27;20057;-72
2022/12/07 07:08:43;;;;;;;7.68;1.50;;;2.50;99.90;;;;;;5086439;28;20047;-72
2022/12/07 07:11:09;;;;;;;11.75;1.63;;;2.20;99.90;;;;;;5103483;27;20104;-72
2022/12/07 07:13:36;;;;;;;8.50;1.63;;;2.30;99.90;;;;;;5115887;27;20134;-72
2022/12/07 07:16:02;;;;;;;7.43;1.35;;;2.20;99.90;;;;;;5083203;28;20119;-72
2022/12/07 07:18:28;;;;;;;9.25;1.55;;;2.30;99.90;;;;;;5102714;28;20052;-73
2022/12/07 07:20:54;;;;;;;10.20;1.55;;;2.30;99.90;;;;;;5081585;27;20051;-73
2022/12/07 07:23:21;;;;;;;7.05;1.60;;;2.30;99.90;;;;;;5099642;27;20047;-72
2022/12/07 07:25:47;;;;;;;9.95;1.63;;;2.50;99.90;;;;;;5115603;27;20126;-72
2022/12/07 07:28:13;;;;;;;14.60;1.98;;;2.40;99.90;;;;;;5117625;27;20097;-72
2022/12/07 07:30:39;;;;;;;12.75;2.00;;;2.40;99.90;;;;;;5117482;27;20058;-72
2022/12/07 07:33:05;;;;;;;8.02;1.63;;;2.90;99.90;;;;;;5113540;28;20037;-72
2022/12/07 07:35:32;;;;;;;8.90;1.90;;;2.40;99.90;;;;;;5087773;27;20047;-72
2022/12/07 07:37:58;;;;;;;8.70;1.70;;;2.40;99.90;;;;;;5084632;28;20043;-72
2022/12/07 07:40:24;;;;;;;12.18;1.85;;;2.60;99.90;;;;;;5073926;28;20043;-72
2022/12/07 07:42:52;;;;;;;12.57;1.90;;;2.40;99.90;;;;;;5096582;28;20052;-71
2022/12/07 07:45:19;;;;;;;9.15;1.60;;;2.70;99.90;;;;;;5096587;28;20054;-72
2022/12/07 07:47:45;;;;;;;10.43;1.58;;;2.40;99.90;;;;;;5096999;28;20391;-72
2022/12/07 07:50:11;;;;;;;9.00;1.85;;;2.40;99.90;;;;;;5096642;27;20055;-72
2022/12/07 07:52:37;;;;;;;9.60;1.77;;;2.40;99.90;;;;;;5116457;27;20051;-72
2022/12/07 07:55:03;;;;;;;11.50;2.10;;;2.40;99.90;;;;;;5095214;27;20035;-73
2022/12/07 07:57:29;;;;;;;10.00;1.95;;;2.50;99.90;;;;;;5079569;27;20043;-71
2022/12/07 07:59:54;;;;;;;8.00;1.98;;;2.80;99.90;;;;;;5110480;27;20081;-73
2022/12/07 08:02:21;;;;;;;6.82;1.52;;;2.60;99.90;;;;;;5099228;28;20055;-72
2022/12/07 08:04:47;;;;;;;13.63;1.77;;;2.60;99.90;;;;;;5097880;27;20047;-72
2022/12/07 08:07:14;;;;;;;10.02;1.80;;;2.60;99.90;;;;;;5090637;27;20039;-71
2022/12/07 08:09:40;;;;;;;8.10;1.40;;;2.60;99.90;;;;;;5116514;27;20083;-72
2022/12/07 08:12:06;;;;;;;10.65;1.75;;;3.10;99.90;;;;;;5113080;27;20053;-71
2022/12/07 08:14:33;;;;;;;10.95;1.70;;;2.70;99.90;;;;;;5095884;27;20042;-72
2022/12/07 08:16:59;;;;;;;12.75;1.67;;;2.70;99.90;;;;;;5093834;28;20437;-72
2022/12/07 08:19:25;;;;;;;9.50;1.92;;;2.70;99.90;;;;;;5109281;27;20043;-72
2022/12/07 08:21:51;;;;;;;9.07;1.75;;;2.70;99.90;;;;;;5092733;27;20039;-72
2022/12/07 08:24:17;;;;;;;9.57;1.60;;;2.70;99.90;;;;;;5108716;28;20047;-72
2022/12/07 08:26:43;;;;;;;9.35;1.70;;;3.60;99.90;;;;;;5100776;28;20044;-72
2022/12/07 08:29:09;;;;;;;11.38;1.60;;;3.00;99.90;;;;;;5098020;28;20051;-73
2022/12/07 08:31:35;;;;;;;7.25;1.40;;;2.60;99.90;;;;;;5100216;27;20581;-71
2022/12/07 08:34:00;;;;;;;8.82;1.77;;;2.60;99.90;;;;;;5110194;27;20134;-72
2022/12/07 08:36:26;;;;;;;9.65;2.60;;;2.60;99.90;;;;;;5019309;28;20059;-72
2022/12/07 08:38:52;;;;;;;14.13;2.42;;;3.10;99.90;;;;;;5086444;27;20475;-71
2022/12/07 08:41:18;;;;;;;8.55;1.80;;;2.60;99.90;;;;;;5110456;27;20052;-71
2022/12/07 08:43:44;;;;;;;12.00;2.38;;;2.80;99.90;;;;;;5107031;27;20069;-71
2022/12/07 08:46:21;;;;;;;11.32;2.40;;;2.80;99.90;;;;;;5104828;28;20108;-71
2022/12/07 08:48:52;;;;;;;13.20;2.20;;;3.00;99.90;;;;;;5108128;27;20184;-72
2022/12/07 08:51:19;;;;;;;7.32;1.90;;;3.10;99.90;;;;;;5109742;27;20067;-71
2022/12/07 08:53:45;;;;;;;8.77;2.10;;;3.50;99.90;;;;;;5092902;28;20126;-71
2022/12/07 08:56:11;;;;;;;9.95;2.10;;;3.40;99.90;;;;;;5090160;28;20044;-72
2022/12/07 08:58:38;;;;;;;10.73;2.38;;;3.50;99.90;;;;;;5111768;28;20099;-71
2022/12/07 09:01:04;;;;;;;11.32;1.83;;;3.80;99.90;;;;;;5088569;28;20047;-72
2022/12/07 09:03:31;;;;;;;11.10;2.10;;;3.70;99.90;;;;;;5036067;28;20109;-71
2022/12/07 09:05:58;;;;;;;13.40;1.88;;;3.80;99.90;;;;;;5089213;28;20044;-71
2022/12/07 09:08:28;;;;;;;11.07;2.10;;;3.80;99.90;;;;;;5100833;28;20086;-72
2022/12/07 09:10:54;;;;;;;12.88;2.00;;;4.00;99.90;;;;;;5086478;28;20039;-72
2022/12/07 09:13:19;;;;;;;8.60;1.70;;;4.10;99.90;;;;;;5110465;28;20047;-71
2022/12/07 09:15:45;;;;;;;9.02;1.98;;;4.10;99.90;;;;;;5091272;28;20108;-71
2022/12/07 09:18:11;;;;;;;9.27;1.85;;;4.20;99.90;;;;;;5107044;28;20046;-72
2022/12/07 09:20:36;;;;;;;10.20;1.80;;;4.50;99.90;;;;;;5090028;28;20032;-72
2022/12/07 09:23:02;;;;;;;9.75;1.80;;;4.40;99.90;;;;;;5093825;28;20368;-72
2022/12/07 09:25:28;;;;;;;8.57;1.60;;;4.40;99.90;;;;;;5110008;28;20081;-72
2022/12/07 09:27:58;;;;;;;8.85;1.90;;;4.30;99.90;;;;;;5108846;28;20425;-72
2022/12/07 09:30:24;;;;;;;10.13;2.10;;;4.20;99.90;;;;;;5113202;28;20398;-73
2022/12/07 09:32:50;;;;;;;11.68;2.33;;;4.20;99.90;;;;;;5107910;28;20055;-71
2022/12/07 09:35:16;;;;;;;11.60;2.20;;;4.10;99.90;;;;;;5112437;28;20066;-72
2022/12/07 09:37:41;;;;;;;9.13;1.63;;;4.20;99.90;;;;;;5108889;28;20114;-71
2022/12/07 09:40:07;;;;;;;9.82;1.63;;;4.30;99.90;;;;;;5108133;28;20085;-72
2022/12/07 09:42:34;;;;;;;10.65;1.80;;;4.30;99.90;;;;;;5109612;28;20046;-72
2022/12/07 09:45:02;;;;;;;12.05;2.42;;;5.10;99.90;;;;;;5094500;27;20043;-72
2022/12/07 09:47:28;;;;;;;9.45;1.65;;;4.50;99.90;;;;;;5115217;27;20039;-72
2022/12/07 09:50:05;;;;;;;9.23;1.92;;;4.50;99.90;;;;;;5095256;28;20100;-73
2022/12/07 09:52:32;;;;;;;10.02;1.73;;;4.50;99.90;;;;;;5097027;27;20055;-74
2022/12/07 09:54:57;;;;;;;8.25;1.75;;;4.50;99.90;;;;;;5098592;27;20119;-72
2022/12/07 09:57:34;;;;;;;9.90;1.70;;;4.50;99.90;;;;;;5096503;27;20044;-72
2022/12/07 10:00:04;;;;;;;9.50;1.98;;;4.50;99.90;;;;;;5113740;27;20047;-71
2022/12/07 10:02:54;;;;;;;7.28;1.70;;;4.60;99.90;;;;;;5108112;27;20160;-72
2022/12/07 10:05:37;;;;;;;9.13;1.75;;;4.60;99.90;;;;;;5103897;27;20043;-71
2022/12/07 10:08:03;;;;;;;10.70;1.83;;;4.50;99.90;;;;;;5098370;27;20042;-73
2022/12/07 10:10:34;;;;;;;7.40;1.90;;;4.40;99.90;;;;;;5109398;27;20482;-71
2022/12/07 10:13:09;;;;;;;6.75;1.35;;;4.40;99.90;;;;;;5113546;27;20342;-72
2022/12/07 10:15:43;;;;;;;8.25;1.73;;;4.50;99.90;;;;;;5105434;28;20036;-73
2022/12/07 10:18:29;;;;;;;8.70;1.92;;;4.50;99.90;;;;;;5105981;27;20101;-72
2022/12/07 10:21:02;;;;;;;10.32;2.00;;;4.60;99.90;;;;;;5122710;27;20039;-72
2022/12/07 10:23:28;;;;;;;11.18;2.30;;;4.60;99.90;;;;;;5112437;27;20039;-72
2022/12/07 10:25:54;;;;;;;10.82;2.22;;;4.60;99.90;;;;;;5104793;28;20048;-73
2022/12/07 10:28:21;;;;;;;10.68;2.13;;;4.60;99.90;;;;;;5094784;27;20471;-71
2022/12/07 10:31:19;;;;;;;9.30;1.98;;;4.90;99.90;;;;;;5110849;27;20048;-72
2022/12/07 10:33:54;;;;;;;13.77;2.17;;;4.60;99.90;;;;;;5111335;27;20503;-72
2022/12/07 10:36:20;;;;;;;7.78;1.88;;;4.60;99.90;;;;;;5110039;27;20554;-71
2022/12/07 10:38:49;;;;;;;9.55;1.90;;;4.70;99.90;;;;;;5112219;27;20131;-72
2022/12/07 10:41:16;;;;;;;8.65;1.90;;;4.70;99.90;;;;;;5090356;28;20399;-72
2022/12/07 10:43:50;;;;;;;12.02;2.10;;;4.70;99.90;;;;;;5095329;27;20039;-72
2022/12/07 10:46:59;;;;;;;9.50;1.70;;;4.70;99.90;;;;;;5112663;27;20134;-73
2022/12/07 10:49:36;;;;;;;12.43;2.00;;;4.70;99.90;;;;;;5093302;27;20124;-72
2022/12/07 10:52:29;;;;;;;9.30;1.90;;;4.70;99.90;;;;;;5110127;27;20471;-72
2022/12/07 10:55:25;;;;;;;10.07;1.90;;;4.70;99.90;;;;;;5095327;27;20554;-72
2022/12/07 10:58:21;;;;;;;10.50;1.77;;;4.70;99.90;;;;;;5105946;27;20399;-72
2022/12/07 11:01:20;;;;;;;7.57;1.63;;;4.70;99.90;;;;;;5110889;27;20047;-72
2022/12/07 11:04:02;;;;;;;10.70;1.60;;;4.70;99.90;;;;;;5111721;27;20046;-72
2022/12/07 11:06:49;;;;;;;8.20;1.60;;;4.80;99.90;;;;;;5111042;27;20055;-72
2022/12/07 11:09:53;;;;;;;8.63;1.77;;;4.70;99.90;;;;;;5112906;27;20051;-72
2022/12/07 11:12:37;;;;;;;6.85;1.42;;;4.70;99.90;;;;;;5110699;27;20479;-71
2022/12/07 11:15:25;;;;;;;6.80;1.40;;;4.70;99.90;;;;;;5107537;27;20043;-73
2022/12/07 11:18:07;;;;;;;8.50;1.50;;;4.80;99.90;;;;;;5116702;27;20093;-72
2022/12/07 11:20:56;;;;;;;6.93;1.42;;;4.80;99.90;;;;;;5109043;27;20047;-72
2022/12/07 11:23:35;;;;;;;9.80;1.65;;;4.80;99.90;;;;;;5109443;28;20047;-71
2022/12/07 11:26:33;;;;;;;8.88;1.73;;;4.90;99.90;;;;;;5113486;27;20093;-72
2022/12/07 11:29:23;;;;;;;8.73;1.85;;;4.80;99.90;;;;;;5106173;28;20051;-71
2022/12/07 11:32:13;;;;;;;9.18;1.95;;;4.80;99.90;;;;;;5097275;27;20055;-71
2022/12/07 11:34:54;;;;;;;9.15;1.75;;;4.80;99.90;;;;;;5108103;28;20036;-73
2022/12/07 11:37:32;;;;;;;8.85;1.80;;;4.80;99.90;;;;;;5111772;27;20050;-72
2022/12/07 11:40:05;;;;;;;10.75;1.95;;;4.80;99.90;;;;;;5110346;27;20043;-73
2022/12/07 11:42:41;;;;;;;8.10;1.60;;;4.90;99.90;;;;;;5094669;27;20100;-72
2022/12/07 11:45:25;;;;;;;9.10;1.88;;;5.20;99.90;;;;;;5090570;28;20546;-73
2022/12/07 11:48:15;;;;;;;9.25;1.70;;;4.90;99.90;;;;;;5108231;27;20047;-72
2022/12/07 11:50:45;;;;;;;9.90;1.90;;;4.90;99.90;;;;;;5092368;27;20495;-73
2022/12/07 11:53:19;;;;;;;9.15;1.80;;;4.90;99.90;;;;;;5108768;27;20122;-72
2022/12/07 11:56:01;;;;;;;9.88;1.90;;;5.70;99.90;;;;;;5112452;27;20067;-72
2022/12/07 11:58:33;;;;;;;11.70;1.85;;;4.90;99.90;;;;;;5094803;27;20082;-71
2022/12/07 12:01:33;;;;;;;8.02;1.80;;;4.90;99.90;;;;;;5113518;27;20058;-71
2022/12/07 12:04:11;;;;;;;9.73;2.10;;;4.90;99.90;;;;;;5102633;27;20062;-71
2022/12/07 12:06:42;;;;;;;10.95;2.20;;;4.80;99.90;;;;;;5102077;27;20054;-71
2022/12/07 12:09:35;;;;;;;13.05;3.70;;;5.20;99.90;;;;;;5099190;28;20086;-71
2022/12/07 12:12:41;;;;;;;14.07;4.40;;;4.90;99.90;;;;;;5091751;28;20051;-71
2022/12/07 12:15:25;;;;;;;21.13;13.65;;;4.80;99.90;;;;;;5101494;28;20471;-71
2022/12/07 12:18:07;;;;;;;20.83;14.88;;;4.90;99.90;;;;;;5094821;27;20051;-71
2022/12/07 12:20:45;;;;;;;;;;;5.00;99.90;;;;;;5091205;27;20043;-71
2022/12/07 12:23:19;;;;;;;13.20;3.78;;;5.00;99.90;;;;;;5107150;27;19930;-71
2022/12/07 12:25:51;;;;;;;9.02;2.22;;;5.10;99.90;;;;;;5105351;27;20044;-70
2022/12/07 12:28:34;;;;;;;7.78;2.53;;;5.10;99.90;;;;;;5106161;27;20097;-71
2022/12/07 12:31:20;;;;;;;12.30;3.70;;;5.10;99.90;;;;;;5105414;27;20046;-70
2022/12/07 12:33:52;;;;;;;8.80;1.90;;;5.10;99.90;;;;;;5108052;27;20043;-71
2022/12/07 12:36:22;;;;;;;6.72;1.73;;;5.10;99.90;;;;;;5105924;27;20043;-71
2022/12/07 12:39:16;;;;;;;7.32;1.80;;;5.20;99.90;;;;;;5093014;27;20059;-71
2022/12/07 12:42:05;;;;;;;8.02;1.80;;;5.20;99.90;;;;;;5106044;27;20126;-70
2022/12/07 12:44:31;;;;;;;10.20;2.00;;;6.10;99.90;;;;;;5104761;27;20044;-71
2022/12/07 12:47:02;;;;;;;13.13;2.00;;;5.20;99.90;;;;;;5104620;27;20047;-71
2022/12/07 12:49:37;;;;;;;10.23;2.00;;;5.10;99.90;;;;;;5109184;27;20047;-70
2022/12/07 12:52:15;;;;;;;10.80;1.95;;;5.20;99.90;;;;;;5082667;28;20051;-72
2022/12/07 12:54:59;;;;;;;9.98;2.25;;;5.20;99.90;;;;;;5109292;27;20053;-71
2022/12/07 12:57:31;;;;;;;9.00;2.10;;;5.20;99.90;;;;;;5110076;28;20080;-71
2022/12/07 12:59:59;;;;;;;9.98;2.15;;;5.20;99.90;;;;;;5088249;28;20519;-71
2022/12/07 13:02:31;;;;;;;7.72;1.70;;;5.20;99.90;;;;;;5108347;27;20047;-71
2022/12/07 13:05:12;;;;;;;8.82;2.10;;;5.20;99.90;;;;;;5107838;28;20048;-72
2022/12/07 13:07:46;;;;;;;9.82;1.90;;;5.30;99.90;;;;;;5109040;28;20080;-71
2022/12/07 13:10:30;;;;;;;7.22;1.73;;;5.20;99.90;;;;;;5109381;27;20055;-72
2022/12/07 13:13:12;;;;;;;11.13;2.10;;;5.20;99.90;;;;;;5085541;28;20055;-71
2022/12/07 13:15:42;;;;;;;7.80;1.70;;;5.10;99.90;;;;;;5108144;28;20047;-71
2022/12/07 13:18:08;;;;;;;8.05;1.80;;;5.10;99.90;;;;;;5102196;28;20134;-70